createdAt,value
2022-10-18T00:00:06.884Z,7.57
2022-10-18T00:02:39.448Z,4.20
2022-10-18T00:05:06.477Z,6.50
2022-10-18T00:07:33.374Z,5.57
2022-10-18T00:10:00.391Z,6.53
2022-10-18T00:12:27.067Z,6.27
2022-10-18T00:14:53.759Z,5.77
2022-10-18T00:17:20.375Z,5.60
2022-10-18T00:19:50.304Z,6.00
2022-10-18T00:22:17.220Z,6.13
2022-10-18T00:24:44.737Z,7.43
2022-10-18T00:27:11.488Z,6.07
2022-10-18T00:29:38.141Z,5.50
2022-10-18T00:32:05.430Z,5.93
2022-10-18T00:34:32.061Z,7.63
2022-10-18T00:36:58.578Z,6.80
2022-10-18T00:39:25.389Z,5.23
2022-10-18T00:41:52.347Z,7.53
2022-10-18T00:44:18.908Z,7.63
2022-10-18T00:46:48.535Z,5.60
2022-10-18T00:49:35.639Z,7.37
2022-10-18T00:52:14.197Z,5.80
2022-10-18T00:54:44.360Z,5.97
2022-10-18T00:57:11.901Z,5.43
2022-10-18T00:59:39.846Z,6.43
2022-10-18T01:02:06.906Z,6.13
2022-10-18T01:04:34.599Z,7.03
2022-10-18T01:07:04.245Z,7.50
2022-10-18T01:09:45.142Z,7.77
2022-10-18T01:12:51.640Z,6.70
2022-10-18T01:15:27.791Z,5.87
2022-10-18T01:18:03.434Z,5.87
2022-10-18T01:20:39.186Z,7.83
2022-10-18T01:23:19.945Z,6.60
2022-10-18T01:26:24.543Z,6.57
2022-10-18T01:29:00.645Z,7.13
2022-10-18T01:31:35.322Z,7.50
2022-10-18T01:34:07.755Z,9.23
2022-10-18T01:36:40.384Z,9.27
2022-10-18T01:39:11.919Z,8.17
2022-10-18T01:41:41.693Z,8.00
2022-10-18T01:44:18.966Z,7.83
2022-10-18T01:46:47.071Z,10.07
2022-10-18T01:49:13.832Z,8.60
2022-10-18T01:51:40.571Z,9.13
2022-10-18T01:54:07.278Z,9.63
2022-10-18T01:56:42.716Z,11.17
2022-10-18T01:59:09.438Z,7.67
2022-10-18T02:02:17.161Z,10.23
2022-10-18T02:05:00.952Z,9.23
2022-10-18T02:07:43.675Z,8.47
2022-10-18T02:10:16.219Z,7.80
2022-10-18T02:12:46.657Z,8.77
2022-10-18T02:15:17.599Z,10.30
2022-10-18T02:17:46.730Z,8.43
2022-10-18T02:20:17.827Z,8.70
2022-10-18T02:22:46.020Z,9.53
2022-10-18T02:25:24.286Z,8.07
2022-10-18T02:27:54.735Z,7.90
2022-10-18T02:30:28.142Z,7.87
2022-10-18T02:33:04.353Z,8.60
2022-10-18T02:35:42.106Z,9.07
2022-10-18T02:38:11.493Z,9.20
2022-10-18T02:40:38.273Z,8.77
2022-10-18T02:43:07.000Z,8.50
2022-10-18T02:45:33.906Z,8.80
2022-10-18T02:48:00.509Z,9.63
2022-10-18T02:50:27.116Z,8.53
2022-10-18T02:52:54.435Z,10.57
2022-10-18T02:55:21.126Z,8.53
2022-10-18T02:57:47.988Z,8.27
2022-10-18T03:00:15.014Z,8.43
2022-10-18T03:02:41.622Z,8.50
2022-10-18T03:05:08.973Z,8.77
2022-10-18T03:07:35.688Z,8.80
2022-10-18T03:10:02.145Z,9.47
2022-10-18T03:12:32.390Z,9.43
2022-10-18T03:14:58.986Z,8.50
2022-10-18T03:17:25.537Z,10.37
2022-10-18T03:19:52.048Z,9.03
2022-10-18T03:22:18.734Z,8.77
2022-10-18T03:24:45.516Z,9.20
2022-10-18T03:27:13.755Z,9.93
2022-10-18T03:29:40.691Z,10.00
2022-10-18T03:32:08.096Z,10.77
2022-10-18T03:34:34.732Z,10.60
2022-10-18T03:37:04.669Z,10.03
2022-10-18T03:39:32.183Z,10.57
2022-10-18T03:41:58.822Z,9.53
2022-10-18T03:44:25.450Z,10.50
2022-10-18T03:46:51.973Z,12.53
2022-10-18T03:49:18.507Z,12.60
2022-10-18T03:51:45.132Z,10.30
2022-10-18T03:54:11.734Z,11.53
2022-10-18T03:56:38.289Z,11.17
2022-10-18T03:59:05.513Z,9.67
2022-10-18T04:01:32.217Z,11.27
2022-10-18T04:03:58.942Z,10.50
2022-10-18T04:06:25.483Z,10.17
2022-10-18T04:08:52.301Z,10.30
2022-10-18T04:11:18.866Z,11.10
2022-10-18T04:13:46.475Z,12.47
2022-10-18T04:16:13.095Z,10.13
2022-10-18T04:18:43.019Z,12.00
2022-10-18T04:21:09.542Z,10.63
2022-10-18T04:23:38.709Z,10.43
2022-10-18T04:26:06.039Z,10.73
2022-10-18T04:28:33.750Z,10.17
2022-10-18T04:31:00.452Z,9.57
2022-10-18T04:33:27.803Z,10.10
2022-10-18T04:35:54.385Z,9.80
2022-10-18T04:38:20.949Z,10.40
2022-10-18T04:40:47.501Z,8.43
2022-10-18T04:43:14.135Z,9.60
2022-10-18T04:45:40.671Z,9.30
2022-10-18T04:48:09.344Z,9.30
2022-10-18T04:50:35.977Z,9.63
2022-10-18T04:53:14.030Z,8.47
2022-10-18T04:55:46.789Z,8.33
2022-10-18T04:58:13.494Z,9.17
2022-10-18T05:00:40.702Z,10.70
2022-10-18T05:03:08.769Z,9.33
2022-10-18T05:05:49.730Z,11.53
2022-10-18T05:08:21.901Z,8.93
2022-10-18T05:10:49.013Z,10.87
2022-10-18T05:13:15.620Z,12.00
2022-10-18T05:15:42.403Z,10.07
2022-10-18T05:18:10.817Z,11.30
2022-10-18T05:20:37.352Z,11.17
2022-10-18T05:23:03.977Z,10.03
2022-10-18T05:25:30.724Z,10.60
2022-10-18T05:27:57.307Z,12.07
2022-10-18T05:30:23.883Z,10.73
2022-10-18T05:32:52.026Z,10.10
2022-10-18T05:35:18.560Z,9.73
2022-10-18T05:37:45.139Z,9.97
2022-10-18T05:40:13.824Z,12.50
2022-10-18T05:42:40.475Z,10.43
2022-10-18T05:45:07.573Z,10.37
2022-10-18T05:50:01.750Z,10.80
2022-10-18T05:52:28.336Z,9.70
2022-10-18T05:54:54.990Z,9.83
2022-10-18T05:57:21.647Z,10.70
2022-10-18T05:59:48.218Z,11.23
2022-10-18T06:02:15.611Z,12.27
2022-10-18T06:04:42.231Z,12.97
2022-10-18T06:07:12.615Z,16.50
2022-10-18T06:09:39.266Z,14.30
2022-10-18T06:12:06.217Z,15.23
2022-10-18T06:14:32.875Z,16.00
2022-10-18T06:17:00.033Z,14.83
2022-10-18T06:19:26.540Z,15.33
2022-10-18T06:21:53.080Z,21.10
2022-10-18T06:24:22.886Z,14.53
2022-10-18T06:26:49.977Z,15.53
2022-10-18T06:29:19.144Z,12.67
2022-10-18T06:31:46.176Z,15.13
2022-10-18T06:34:12.804Z,14.90
2022-10-18T06:36:39.444Z,12.37
2022-10-18T06:39:07.053Z,12.53
2022-10-18T06:41:33.571Z,15.47
2022-10-18T06:44:19.060Z,11.80
2022-10-18T06:46:48.128Z,14.53
2022-10-18T06:49:18.972Z,13.77
2022-10-18T06:51:47.091Z,12.77
2022-10-18T06:54:18.146Z,16.37
2022-10-18T06:56:45.613Z,13.87
2022-10-18T06:59:12.188Z,13.60
2022-10-18T07:01:39.021Z,14.27
2022-10-18T07:04:05.936Z,12.53
2022-10-18T07:06:33.549Z,14.47
2022-10-18T07:09:02.900Z,13.47
2022-10-18T07:11:29.656Z,13.90
2022-10-18T07:14:03.235Z,16.03
2022-10-18T07:16:31.896Z,13.77
2022-10-18T07:18:58.431Z,13.70
2022-10-18T07:21:27.096Z,15.97
2022-10-18T07:23:53.894Z,16.17
2022-10-18T07:26:25.019Z,14.67
2022-10-18T07:28:56.245Z,14.13
2022-10-18T07:31:24.135Z,14.27
2022-10-18T07:33:51.484Z,14.57
2022-10-18T07:36:18.264Z,13.33
2022-10-18T07:38:44.905Z,15.37
2022-10-18T07:41:13.542Z,13.27
2022-10-18T07:43:48.730Z,12.97
2022-10-18T07:46:16.033Z,14.63
2022-10-18T07:48:42.937Z,18.57
2022-10-18T07:51:11.900Z,15.60
2022-10-18T07:53:39.106Z,15.33
2022-10-18T07:56:11.489Z,16.43
2022-10-18T07:58:38.053Z,16.43
2022-10-18T08:01:06.523Z,20.33
2022-10-18T08:03:33.727Z,16.97
2022-10-18T08:06:00.402Z,17.80
2022-10-18T08:08:27.475Z,21.33
2022-10-18T08:10:55.508Z,20.87
2022-10-18T08:13:22.326Z,23.50
2022-10-18T08:15:48.944Z,20.73
2022-10-18T08:18:15.538Z,20.37
2022-10-18T08:20:45.821Z,21.47
2022-10-18T08:23:13.257Z,19.70
2022-10-18T08:25:40.244Z,24.57
2022-10-18T08:28:07.890Z,22.50
2022-10-18T08:30:35.424Z,24.57
2022-10-18T08:33:04.071Z,23.30
2022-10-18T08:35:31.798Z,23.30
2022-10-18T08:37:59.291Z,20.10
2022-10-18T08:40:30.277Z,22.07
2022-10-18T08:43:10.527Z,22.67
2022-10-18T08:45:42.775Z,25.40
2022-10-18T08:48:42.278Z,24.50
2022-10-18T08:51:27.049Z,21.20
2022-10-18T08:54:07.565Z,23.63
2022-10-18T08:56:35.122Z,25.17
2022-10-18T08:59:06.453Z,22.37
2022-10-18T09:01:58.858Z,28.87
2022-10-18T09:04:32.895Z,25.83
2022-10-18T09:07:10.161Z,26.57
2022-10-18T09:09:50.966Z,27.83
2022-10-18T09:12:39.325Z,28.53
2022-10-18T09:15:32.545Z,30.07
2022-10-18T09:18:12.919Z,29.33
2022-10-18T09:20:52.683Z,32.93
2022-10-18T09:23:47.416Z,35.50
2022-10-18T09:26:21.078Z,33.37
2022-10-18T09:29:26.168Z,31.97
2022-10-18T09:32:04.556Z,34.20
2022-10-18T09:34:43.127Z,35.20
2022-10-18T09:37:14.659Z,32.63
2022-10-18T09:39:42.128Z,36.07
2022-10-18T09:42:16.091Z,32.83
2022-10-18T09:44:48.885Z,33.83
2022-10-18T09:47:25.314Z,33.97
2022-10-18T09:50:02.725Z,32.63
2022-10-18T09:52:42.392Z,31.63
2022-10-18T09:55:17.300Z,31.73
2022-10-18T09:57:49.250Z,32.70
2022-10-18T10:00:22.688Z,32.77
2022-10-18T10:02:49.330Z,39.27
2022-10-18T10:05:16.130Z,36.70
2022-10-18T10:07:47.843Z,38.03
2022-10-18T10:10:26.131Z,34.53
2022-10-18T10:13:05.090Z,36.27
2022-10-18T10:15:37.078Z,35.70
2022-10-18T10:18:30.181Z,33.33
2022-10-18T10:21:01.052Z,32.90
2022-10-18T10:23:36.184Z,34.20
2022-10-18T10:26:32.154Z,36.53
2022-10-18T10:28:58.903Z,37.17
2022-10-18T10:31:25.427Z,37.57
2022-10-18T10:34:20.170Z,42.97
2022-10-18T10:36:52.301Z,38.17
2022-10-18T10:39:22.159Z,38.50
2022-10-18T10:41:54.104Z,34.77
2022-10-18T10:44:27.072Z,34.33
2022-10-18T10:46:54.975Z,36.40
2022-10-18T10:49:40.238Z,33.13
2022-10-18T10:52:37.110Z,28.87
2022-10-18T10:55:30.433Z,37.47
2022-10-18T10:57:55.471Z,28.63
2022-10-18T11:00:44.382Z,30.17
2022-10-18T11:03:27.738Z,31.03
2022-10-18T11:05:57.993Z,29.90
2022-10-18T11:08:29.594Z,31.57
2022-10-18T11:11:01.245Z,27.47
2022-10-18T11:13:44.415Z,41.90
2022-10-18T11:16:21.704Z,34.20
2022-10-18T11:18:51.218Z,34.40
2022-10-18T11:21:25.772Z,37.00
2022-10-18T11:23:52.804Z,36.83
2022-10-18T11:26:36.962Z,34.03
2022-10-18T11:29:35.574Z,31.00
2022-10-18T11:32:21.214Z,31.83
2022-10-18T11:35:19.754Z,32.87
2022-10-18T11:38:06.198Z,28.43
2022-10-18T11:40:52.181Z,27.90
2022-10-18T11:44:02.283Z,28.33
2022-10-18T11:46:49.929Z,28.80
2022-10-18T11:49:23.197Z,30.27
2022-10-18T11:52:33.664Z,29.53
2022-10-18T11:55:10.843Z,28.33
2022-10-18T11:58:11.027Z,26.77
2022-10-18T12:00:50.462Z,25.00
2022-10-18T12:03:34.555Z,27.57
2022-10-18T12:06:06.818Z,31.90
2022-10-18T12:08:57.609Z,30.40
2022-10-18T12:11:30.763Z,32.43
2022-10-18T12:14:01.247Z,32.83
2022-10-18T12:16:50.400Z,29.07
2022-10-18T12:19:27.014Z,32.37
2022-10-18T12:21:57.549Z,32.70
2022-10-18T12:24:28.713Z,32.43
2022-10-18T12:27:00.558Z,34.90
2022-10-18T12:29:40.088Z,33.60
2022-10-18T12:32:16.206Z,38.13
2022-10-18T12:34:46.099Z,29.57
2022-10-18T12:37:21.664Z,33.30
2022-10-18T12:40:12.121Z,35.80
2022-10-18T12:42:44.041Z,40.33
2022-10-18T12:45:13.783Z,37.10
2022-10-18T12:47:40.781Z,40.93
2022-10-18T12:50:31.058Z,41.00
2022-10-18T12:53:10.182Z,40.93
2022-10-18T12:55:40.831Z,46.27
2022-10-18T12:58:13.469Z,41.47
2022-10-18T13:00:43.165Z,42.57
2022-10-18T13:03:12.600Z,40.30
2022-10-18T13:05:56.968Z,41.07
2022-10-18T13:08:38.099Z,41.90
2022-10-18T13:11:10.520Z,39.87
2022-10-18T13:14:02.142Z,42.03
2022-10-18T13:16:51.190Z,37.40
2022-10-18T13:19:21.688Z,40.07
2022-10-18T13:22:20.476Z,35.93
2022-10-18T13:25:46.693Z,34.57
2022-10-18T13:28:37.406Z,30.13
2022-10-18T13:31:23.583Z,29.93
2022-10-18T13:33:50.765Z,22.50
2022-10-18T13:36:22.562Z,25.13
2022-10-18T13:38:50.190Z,21.87
2022-10-18T13:43:52.545Z,22.93
2022-10-18T13:46:34.745Z,21.80
2022-10-18T13:49:28.335Z,23.50
2022-10-18T13:52:28.506Z,20.10
2022-10-18T13:55:22.771Z,19.07
2022-10-18T13:58:15.736Z,16.17
2022-10-18T14:01:00.197Z,18.33
2022-10-18T14:03:55.767Z,17.33
2022-10-18T14:06:38.637Z,18.60
2022-10-18T14:09:26.076Z,16.70
2022-10-18T14:12:30.792Z,17.20
2022-10-18T14:15:15.800Z,15.63
2022-10-18T14:17:52.201Z,13.77
2022-10-18T14:20:49.066Z,16.67
2022-10-18T14:23:48.210Z,15.80
2022-10-18T14:26:19.735Z,13.57
2022-10-18T14:29:03.048Z,14.37
2022-10-18T14:31:30.207Z,13.70
2022-10-18T14:33:58.882Z,13.33
2022-10-18T14:36:40.932Z,20.13
2022-10-18T14:39:19.075Z,12.17
2022-10-18T14:41:54.227Z,15.33
2022-10-18T14:44:26.429Z,16.97
2022-10-18T14:46:58.921Z,18.47
2022-10-18T14:49:25.596Z,16.93
2022-10-18T14:51:55.037Z,16.33
2022-10-18T14:54:37.801Z,14.73
2022-10-18T14:57:06.929Z,18.10
2022-10-18T14:59:52.262Z,15.13
2022-10-18T15:02:26.940Z,17.07
2022-10-18T15:05:10.656Z,13.80
2022-10-18T15:07:37.472Z,17.03
2022-10-18T15:10:05.419Z,17.10
2022-10-18T15:13:08.251Z,18.13
2022-10-18T15:15:32.873Z,20.80
2022-10-18T15:18:00.615Z,17.77
2022-10-18T15:20:31.836Z,19.47
2022-10-18T15:23:23.800Z,15.90
2022-10-18T15:25:52.837Z,17.03
2022-10-18T15:28:50.280Z,16.33
2022-10-18T15:31:26.762Z,18.17
2022-10-18T15:34:07.665Z,15.13
2022-10-18T15:36:35.284Z,12.50
2022-10-18T15:39:16.528Z,16.10
2022-10-18T15:41:48.879Z,15.43
2022-10-18T15:44:36.054Z,15.73
2022-10-18T15:47:11.697Z,12.60
2022-10-18T15:49:45.248Z,13.13
2022-10-18T15:52:40.692Z,14.03
2022-10-18T15:55:29.115Z,14.03
2022-10-18T15:58:39.296Z,12.80
2022-10-18T16:01:15.381Z,15.30
2022-10-18T16:03:43.036Z,12.97
2022-10-18T16:06:13.435Z,10.83
2022-10-18T16:08:48.751Z,10.80
2022-10-18T16:11:18.144Z,12.17
2022-10-18T16:13:45.115Z,10.07
2022-10-18T16:16:19.400Z,11.37
2022-10-18T16:18:47.476Z,12.27
2022-10-18T16:21:21.258Z,14.40
2022-10-18T16:23:49.240Z,11.67
2022-10-18T16:26:17.008Z,13.43
2022-10-18T16:28:45.487Z,10.93
2022-10-18T16:31:16.843Z,9.50
2022-10-18T16:33:43.997Z,13.27
2022-10-18T16:36:19.658Z,12.20
2022-10-18T16:38:47.412Z,10.80
2022-10-18T16:41:15.802Z,11.00
2022-10-18T16:43:47.023Z,14.43
2022-10-18T16:46:18.725Z,16.10
2022-10-18T16:48:46.664Z,14.60
2022-10-18T16:51:13.234Z,9.27
2022-10-18T16:53:39.849Z,11.07
2022-10-18T16:56:33.113Z,13.17
2022-10-18T16:59:00.228Z,9.13
2022-10-18T17:01:26.996Z,13.33
2022-10-18T17:03:56.138Z,12.77
2022-10-18T17:06:26.327Z,13.67
2022-10-18T17:08:54.596Z,14.07
2022-10-18T17:11:27.268Z,13.67
2022-10-18T17:13:55.078Z,11.37
2022-10-18T17:16:24.718Z,14.37
2022-10-18T17:18:51.729Z,10.13
2022-10-18T17:21:18.340Z,14.07
2022-10-18T17:23:45.770Z,12.40
2022-10-18T17:26:28.883Z,13.27
2022-10-18T17:29:05.680Z,10.83
2022-10-18T17:31:34.278Z,10.13
2022-10-18T17:34:01.890Z,13.53
2022-10-18T17:36:32.346Z,14.17
2022-10-18T17:38:59.116Z,18.67
2022-10-18T17:41:26.470Z,12.50
2022-10-18T17:43:53.310Z,13.17
2022-10-18T17:46:20.276Z,17.17
2022-10-18T17:48:47.134Z,11.27
2022-10-18T17:51:16.577Z,14.13
2022-10-18T17:53:43.496Z,13.37
2022-10-18T17:56:11.238Z,12.13
2022-10-18T17:58:37.829Z,14.13
2022-10-18T18:01:16.982Z,15.63
2022-10-18T18:03:44.049Z,14.60
2022-10-18T18:06:20.293Z,11.13
2022-10-18T18:08:47.769Z,12.73
2022-10-18T18:11:15.272Z,16.10
2022-10-18T18:13:42.508Z,13.97
2022-10-18T18:16:14.007Z,14.47
2022-10-18T18:18:41.027Z,10.87
2022-10-18T18:21:07.670Z,16.30
2022-10-18T18:23:35.769Z,14.53
2022-10-18T18:26:02.460Z,17.50
2022-10-18T18:28:30.149Z,14.13
2022-10-18T18:30:56.987Z,15.57
2022-10-18T18:33:23.595Z,15.73
2022-10-18T18:35:57.744Z,14.60
2022-10-18T18:38:25.620Z,11.87
2022-10-18T18:41:07.603Z,17.73
2022-10-18T18:43:34.895Z,15.03
2022-10-18T18:46:01.810Z,15.53
2022-10-18T18:48:31.438Z,12.90
2022-10-18T18:50:57.992Z,15.13
2022-10-18T18:53:29.701Z,16.17
2022-10-18T18:56:05.150Z,18.73
2022-10-18T18:58:32.400Z,14.80
2022-10-18T19:00:58.990Z,16.87
2022-10-18T19:03:26.333Z,13.53
2022-10-18T19:06:02.417Z,20.33
2022-10-18T19:08:31.753Z,14.23
2022-10-18T19:10:58.294Z,13.63
2022-10-18T19:13:25.599Z,17.03
2022-10-18T19:15:52.301Z,17.87
2022-10-18T19:18:23.178Z,15.83
2022-10-18T19:20:50.674Z,16.07
2022-10-18T19:23:17.299Z,16.13
2022-10-18T19:25:43.986Z,19.57
2022-10-18T19:28:10.577Z,15.60
2022-10-18T19:30:37.781Z,19.50
2022-10-18T19:33:04.691Z,13.83
2022-10-18T19:35:31.362Z,16.40
2022-10-18T19:37:57.914Z,18.27
2022-10-18T19:40:24.584Z,18.33
2022-10-18T19:42:51.177Z,17.23
2022-10-18T19:45:17.869Z,14.20
2022-10-18T19:47:44.443Z,13.50
2022-10-18T19:50:11.158Z,14.53
2022-10-18T19:52:37.873Z,14.03
2022-10-18T19:55:05.046Z,16.67
2022-10-18T19:57:31.593Z,16.30
2022-10-18T20:00:00.786Z,15.60
2022-10-18T20:02:38.297Z,19.07
2022-10-18T20:05:05.377Z,22.17
2022-10-18T20:07:32.035Z,15.03
2022-10-18T20:09:59.928Z,15.23
2022-10-18T20:12:26.910Z,20.23
2022-10-18T20:14:54.079Z,18.27
2022-10-18T20:17:20.927Z,15.70
2022-10-18T20:19:48.646Z,15.80
2022-10-18T20:22:15.505Z,15.80
2022-10-18T20:24:42.368Z,16.80
2022-10-18T20:27:09.343Z,18.57
2022-10-18T20:29:36.087Z,14.10
2022-10-18T20:32:02.784Z,14.03
2022-10-18T20:34:29.525Z,11.37
2022-10-18T20:36:56.182Z,15.60
2022-10-18T20:39:22.917Z,18.57
2022-10-18T20:41:49.664Z,18.00
2022-10-18T20:44:19.453Z,16.73
2022-10-18T20:46:46.985Z,14.53
2022-10-18T20:49:15.847Z,16.53
2022-10-18T20:51:42.967Z,16.73
2022-10-18T20:54:10.892Z,11.93
2022-10-18T20:56:40.140Z,14.03
2022-10-18T20:59:09.690Z,16.13
2022-10-18T21:01:38.611Z,17.90
2022-10-18T21:04:07.985Z,16.80
2022-10-18T21:06:41.135Z,13.43
2022-10-18T21:09:11.994Z,15.27
2022-10-18T21:11:41.782Z,13.37
2022-10-18T21:14:12.816Z,15.07
2022-10-18T21:16:39.681Z,13.43
2022-10-18T21:19:08.802Z,18.30
2022-10-18T21:21:35.794Z,14.67
2022-10-18T21:24:06.869Z,14.20
2022-10-18T21:26:35.359Z,13.13
2022-10-18T21:29:03.421Z,16.37
2022-10-18T21:31:33.793Z,14.30
2022-10-18T21:34:05.929Z,16.20
2022-10-18T21:36:35.244Z,13.23
2022-10-18T21:39:07.290Z,16.53
2022-10-18T21:41:34.767Z,14.47
2022-10-18T21:44:04.469Z,12.90
2022-10-18T21:46:34.848Z,13.53
2022-10-18T21:49:01.511Z,11.23
2022-10-18T21:51:29.125Z,12.20
2022-10-18T21:53:58.189Z,17.37
2022-10-18T21:56:30.652Z,14.23
2022-10-18T21:58:57.948Z,12.73
2022-10-18T22:01:27.941Z,12.10
2022-10-18T22:03:56.619Z,13.83
2022-10-18T22:06:24.366Z,12.73
2022-10-18T22:08:53.905Z,12.30
2022-10-18T22:11:24.386Z,14.93
2022-10-18T22:13:52.535Z,15.43
2022-10-18T22:16:19.664Z,14.40
2022-10-18T22:18:48.284Z,11.90
2022-10-18T22:21:17.164Z,11.13
2022-10-18T22:23:51.179Z,14.63
2022-10-18T22:26:19.773Z,12.07
2022-10-18T22:28:55.370Z,12.70
2022-10-18T22:31:25.323Z,14.97
2022-10-18T22:33:57.407Z,11.47
2022-10-18T22:36:24.886Z,13.43
2022-10-18T22:38:51.732Z,12.10
2022-10-18T22:41:19.874Z,11.03
2022-10-18T22:43:47.690Z,11.10
2022-10-18T22:46:15.227Z,11.63
2022-10-18T22:48:42.449Z,10.20
2022-10-18T22:51:11.147Z,12.70
2022-10-18T22:53:39.805Z,16.50
2022-10-18T22:56:11.211Z,9.47
2022-10-18T22:58:37.798Z,12.60
2022-10-18T23:01:07.845Z,13.77
2022-10-18T23:03:36.682Z,11.77
2022-10-18T23:06:03.751Z,15.10
2022-10-18T23:08:32.564Z,13.30
2022-10-18T23:11:00.326Z,15.30
2022-10-18T23:13:28.063Z,13.87
2022-10-18T23:16:04.369Z,14.87
2022-10-18T23:18:32.495Z,12.93
2022-10-18T23:21:07.385Z,10.77
2022-10-18T23:23:35.782Z,10.00
2022-10-18T23:26:04.738Z,13.37
2022-10-18T23:28:37.093Z,11.73
2022-10-18T23:31:18.936Z,13.30
2022-10-18T23:33:48.794Z,12.10
2022-10-18T23:36:16.103Z,8.80
2022-10-18T23:38:43.793Z,9.07
2022-10-18T23:41:13.375Z,18.37
2022-10-18T23:43:40.767Z,9.33
2022-10-18T23:46:07.570Z,10.73
2022-10-18T23:48:34.327Z,11.07
2022-10-18T23:51:02.219Z,8.90
2022-10-18T23:53:29.216Z,9.87
2022-10-18T23:55:58.597Z,11.50
2022-10-18T23:58:26.464Z,9.83
